createdAt,value
2022-12-31T00:02:26.081Z,99028.30
2022-12-31T00:04:57.174Z,99025.61
2022-12-31T00:07:27.855Z,99021.55
2022-12-31T00:09:58.553Z,99015.86
2022-12-31T00:12:29.196Z,99014.80
2022-12-31T00:14:59.913Z,99009.69
2022-12-31T00:17:30.809Z,99009.35
2022-12-31T00:20:01.480Z,99003.19
2022-12-31T00:22:32.282Z,98999.89
2022-12-31T00:25:03.019Z,99002.51
2022-12-31T00:27:34.475Z,99004.45
2022-12-31T00:30:05.719Z,99011.11
2022-12-31T00:32:36.485Z,99011.28
2022-12-31T00:35:08.965Z,99013.96
2022-12-31T00:37:39.849Z,99011.36
2022-12-31T00:40:14.046Z,99011.88
2022-12-31T00:42:44.669Z,99010.86
2022-12-31T00:45:15.886Z,99004.89
2022-12-31T00:47:46.779Z,98999.73
2022-12-31T00:50:17.458Z,99000.77
2022-12-31T00:52:48.152Z,99007.33
2022-12-31T00:55:18.886Z,99013.77
2022-12-31T00:57:49.443Z,99017.19
2022-12-31T01:00:21.031Z,99015.92
2022-12-31T01:02:52.645Z,99018.98
2022-12-31T01:05:23.422Z,99012.67
2022-12-31T01:07:54.157Z,99015.48
2022-12-31T01:10:38.636Z,99021.67
2022-12-31T01:13:09.834Z,99024.20
2022-12-31T01:15:41.547Z,99021.34
2022-12-31T01:18:12.534Z,99019.48
2022-12-31T01:20:45.003Z,99019.29
2022-12-31T01:23:17.929Z,99022.70
2022-12-31T01:25:48.577Z,99028.61
2022-12-31T01:28:19.522Z,99019.00
2022-12-31T01:30:50.372Z,99029.27
2022-12-31T01:33:21.265Z,99041.00
2022-12-31T01:35:51.917Z,99046.13
2022-12-31T01:38:22.549Z,99047.81
2022-12-31T01:40:53.433Z,99046.42
2022-12-31T01:43:24.134Z,99043.73
2022-12-31T01:45:57.008Z,99046.23
2022-12-31T01:48:29.300Z,99048.94
2022-12-31T01:51:00.750Z,99057.38
2022-12-31T01:53:32.065Z,99053.15
2022-12-31T01:56:03.908Z,99058.17
2022-12-31T01:58:43.789Z,99050.40
2022-12-31T02:01:18.979Z,99053.46
2022-12-31T02:03:49.793Z,99048.54
2022-12-31T02:06:25.845Z,99050.71
2022-12-31T02:08:56.966Z,99061.88
2022-12-31T02:11:30.561Z,99061.29
2022-12-31T02:14:04.786Z,99064.31
2022-12-31T02:16:42.732Z,99054.48
2022-12-31T02:19:38.636Z,99047.05
2022-12-31T02:22:22.838Z,99051.59
2022-12-31T02:25:19.607Z,99063.33
2022-12-31T02:28:04.368Z,99056.19
2022-12-31T02:30:37.736Z,99058.21
2022-12-31T02:33:15.633Z,99055.42
2022-12-31T02:35:53.810Z,99071.06
2022-12-31T02:38:31.217Z,99077.16
2022-12-31T02:41:01.991Z,99076.82
2022-12-31T02:43:32.652Z,99083.00
2022-12-31T02:46:11.600Z,99083.19
2022-12-31T02:48:53.244Z,99081.80
2022-12-31T02:51:37.745Z,99086.20
2022-12-31T02:54:27.499Z,99089.71
2022-12-31T02:57:06.546Z,99092.08
2022-12-31T03:00:06.374Z,99090.02
2022-12-31T03:02:42.310Z,99098.14
2022-12-31T03:05:14.081Z,99096.26
2022-12-31T03:07:46.373Z,99093.99
2022-12-31T03:10:17.087Z,99094.23
2022-12-31T03:12:48.691Z,99094.34
2022-12-31T03:15:22.685Z,99100.78
2022-12-31T03:17:56.906Z,99100.27
2022-12-31T03:20:48.037Z,99102.55
2022-12-31T03:23:22.978Z,99102.59
2022-12-31T03:25:55.048Z,99109.63
2022-12-31T03:28:27.652Z,99109.85
2022-12-31T03:31:00.554Z,99112.52
2022-12-31T03:33:34.272Z,99115.08
2022-12-31T03:36:05.785Z,99112.40
2022-12-31T03:38:36.497Z,99107.15
2022-12-31T03:41:08.032Z,99106.38
2022-12-31T03:43:39.001Z,99107.28
2022-12-31T03:46:09.787Z,99103.27
2022-12-31T03:48:40.930Z,99103.20
2022-12-31T03:51:11.697Z,99103.85
2022-12-31T03:53:42.441Z,99100.66
2022-12-31T03:56:13.189Z,99100.80
2022-12-31T03:58:43.894Z,99102.52
2022-12-31T04:01:14.775Z,99102.83
2022-12-31T04:03:45.604Z,99102.90
2022-12-31T04:06:16.225Z,99099.23
2022-12-31T04:08:47.079Z,99088.92
2022-12-31T04:11:21.053Z,99103.34
2022-12-31T04:13:52.345Z,99108.60
2022-12-31T04:16:23.506Z,99112.63
2022-12-31T04:18:54.327Z,99111.17
2022-12-31T04:21:26.845Z,99107.96
2022-12-31T04:24:01.828Z,99102.95
2022-12-31T04:26:32.849Z,99098.56
2022-12-31T04:29:03.521Z,99099.15
2022-12-31T04:31:34.580Z,99106.38
2022-12-31T04:34:05.508Z,99112.91
2022-12-31T04:36:36.660Z,99113.66
2022-12-31T04:39:07.500Z,99118.91
2022-12-31T04:41:38.106Z,99129.95
2022-12-31T04:44:08.878Z,99128.45
2022-12-31T04:46:39.610Z,99128.70
2022-12-31T04:49:10.220Z,99124.45
2022-12-31T04:51:40.857Z,99123.16
2022-12-31T04:54:11.764Z,99116.91
2022-12-31T04:56:42.566Z,99118.94
2022-12-31T04:59:13.785Z,99118.89
2022-12-31T05:01:44.605Z,99125.29
2022-12-31T05:04:15.261Z,99117.42
2022-12-31T05:06:46.027Z,99113.22
2022-12-31T05:09:16.663Z,99114.88
2022-12-31T05:11:47.278Z,99116.14
2022-12-31T05:14:17.937Z,99119.38
2022-12-31T05:16:48.679Z,99124.23
2022-12-31T05:19:19.711Z,99121.11
2022-12-31T05:22:10.395Z,99116.08
2022-12-31T05:24:41.452Z,99110.55
2022-12-31T05:27:12.439Z,99104.71
2022-12-31T05:29:43.051Z,99107.64
2022-12-31T05:32:13.748Z,99110.67
2022-12-31T05:34:44.809Z,99115.50
2022-12-31T05:37:15.519Z,99118.14
2022-12-31T05:39:46.187Z,99128.12
2022-12-31T05:42:16.977Z,99132.30
2022-12-31T05:44:47.662Z,99128.59
2022-12-31T05:47:18.999Z,99129.62
2022-12-31T05:49:49.879Z,99131.77
2022-12-31T05:52:21.112Z,99131.85
2022-12-31T05:54:53.196Z,99133.07
2022-12-31T05:57:24.229Z,99140.27
2022-12-31T05:59:54.876Z,99140.32
2022-12-31T06:02:26.052Z,99146.54
2022-12-31T06:04:56.835Z,99146.43
2022-12-31T06:07:27.675Z,99145.42
2022-12-31T06:09:58.355Z,99150.20
2022-12-31T06:12:29.388Z,99151.05
2022-12-31T06:15:00.048Z,99160.23
2022-12-31T06:17:32.575Z,99156.55
2022-12-31T06:20:08.847Z,99153.21
2022-12-31T06:22:43.176Z,99149.09
2022-12-31T06:25:14.343Z,99153.48
2022-12-31T06:27:45.010Z,99158.94
2022-12-31T06:30:17.106Z,99161.42
2022-12-31T06:32:47.859Z,99167.46
2022-12-31T06:35:18.953Z,99169.20
2022-12-31T06:37:50.032Z,99165.91
2022-12-31T06:40:20.778Z,99167.70
2022-12-31T06:42:57.775Z,99175.16
2022-12-31T06:45:30.558Z,99181.20
2022-12-31T06:48:01.468Z,99173.69
2022-12-31T06:50:32.180Z,99176.69
2022-12-31T06:53:03.012Z,99177.17
2022-12-31T06:55:35.398Z,99173.73
2022-12-31T06:58:07.554Z,99179.01
2022-12-31T07:00:39.423Z,99179.35
2022-12-31T07:03:22.717Z,99185.77
2022-12-31T07:05:59.630Z,99194.94
2022-12-31T07:08:46.419Z,99199.00
2022-12-31T07:11:23.259Z,99197.08
2022-12-31T07:14:04.504Z,99200.52
2022-12-31T07:16:42.448Z,99204.50
2022-12-31T07:19:31.405Z,99208.11
2022-12-31T07:22:04.081Z,99210.73
2022-12-31T07:24:36.069Z,99212.13
2022-12-31T07:27:22.420Z,99207.46
2022-12-31T07:30:05.453Z,99207.20
2022-12-31T07:32:48.120Z,99203.72
2022-12-31T07:35:35.015Z,99213.58
2022-12-31T07:38:17.880Z,99222.91
2022-12-31T07:41:09.292Z,99223.88
2022-12-31T07:43:49.885Z,99230.36
2022-12-31T07:46:23.433Z,99225.98
2022-12-31T07:48:55.433Z,99231.31
2022-12-31T07:51:27.911Z,99233.57
2022-12-31T07:53:58.522Z,99239.80
2022-12-31T07:56:30.596Z,99243.28
2022-12-31T07:59:19.643Z,99239.67
2022-12-31T08:01:56.005Z,99231.04
2022-12-31T08:04:32.804Z,99235.57
2022-12-31T08:07:15.208Z,99234.17
2022-12-31T08:09:56.687Z,99232.81
2022-12-31T08:12:29.098Z,99232.56
2022-12-31T08:15:00.975Z,99235.86
2022-12-31T08:17:32.533Z,99231.90
2022-12-31T08:20:04.110Z,99224.52
2022-12-31T08:23:06.244Z,99226.23
2022-12-31T08:25:45.348Z,99228.13
2022-12-31T08:28:22.859Z,99229.66
2022-12-31T08:31:01.093Z,99224.86
2022-12-31T08:33:38.445Z,99225.90
2022-12-31T08:36:19.122Z,99223.75
2022-12-31T08:38:58.007Z,99227.67
2022-12-31T08:41:42.473Z,99232.77
2022-12-31T08:44:21.353Z,99248.48
2022-12-31T08:46:58.649Z,99254.91
2022-12-31T08:49:34.151Z,99251.20
2022-12-31T08:52:14.205Z,99254.23
2022-12-31T08:54:46.314Z,99253.54
2022-12-31T08:57:25.489Z,99249.00
2022-12-31T09:00:03.725Z,99242.76
2022-12-31T09:02:53.058Z,99231.38
2022-12-31T09:05:26.440Z,99227.21
2022-12-31T09:08:10.191Z,99217.73
2022-12-31T09:10:51.825Z,99217.00
2022-12-31T09:13:29.306Z,99223.00
2022-12-31T09:16:08.140Z,99215.33
2022-12-31T09:18:42.787Z,99213.34
2022-12-31T09:21:16.123Z,99221.23
2022-12-31T09:23:48.008Z,99216.02
2022-12-31T09:26:36.498Z,99217.79
2022-12-31T09:29:19.562Z,99220.33
2022-12-31T09:32:01.198Z,99225.18
2022-12-31T09:34:40.790Z,99228.44
2022-12-31T09:37:19.204Z,99224.87
2022-12-31T09:39:51.229Z,99224.27
2022-12-31T09:42:56.642Z,99224.29
2022-12-31T09:46:00.563Z,99231.73
2022-12-31T09:49:04.632Z,99233.41
2022-12-31T09:51:47.888Z,99234.92
2022-12-31T09:54:32.005Z,99229.10
2022-12-31T09:57:31.708Z,99226.27
2022-12-31T10:00:06.690Z,99220.22
2022-12-31T10:02:58.672Z,99220.41
2022-12-31T10:05:37.033Z,99219.93
2022-12-31T10:08:26.767Z,99224.91
2022-12-31T10:11:04.553Z,99222.63
2022-12-31T10:13:56.673Z,99218.88
2022-12-31T10:16:44.683Z,99216.69
2022-12-31T10:19:40.829Z,99215.52
2022-12-31T10:22:34.883Z,99212.98
2022-12-31T10:25:38.928Z,99219.22
2022-12-31T10:28:25.074Z,99214.81
2022-12-31T10:31:10.287Z,99215.56
2022-12-31T10:33:46.983Z,99213.46
2022-12-31T10:36:28.612Z,99215.58
2022-12-31T10:39:22.210Z,99215.96
2022-12-31T10:42:35.057Z,99209.85
2022-12-31T10:45:40.190Z,99205.23
2022-12-31T10:48:58.928Z,99200.18
2022-12-31T10:51:55.849Z,99194.77
2022-12-31T10:54:50.843Z,99200.63
2022-12-31T10:57:43.077Z,99197.79
2022-12-31T11:00:20.446Z,99200.67
2022-12-31T11:03:43.922Z,99200.48
2022-12-31T11:06:50.429Z,99196.58
2022-12-31T11:10:04.789Z,99191.66
2022-12-31T11:13:06.534Z,99181.36
2022-12-31T11:16:04.556Z,99181.48
2022-12-31T11:18:38.201Z,99182.64
2022-12-31T11:21:28.248Z,99180.08
2022-12-31T11:24:10.758Z,99175.70
2022-12-31T11:26:57.333Z,99176.15
2022-12-31T11:29:39.583Z,99177.14
2022-12-31T11:32:19.339Z,99171.49
2022-12-31T11:34:58.251Z,99173.46
2022-12-31T11:37:38.663Z,99173.63
2022-12-31T11:40:38.868Z,99174.48
2022-12-31T11:43:21.686Z,99172.21
2022-12-31T11:46:22.807Z,99166.84
2022-12-31T11:49:08.536Z,99162.60
2022-12-31T11:51:55.903Z,99164.48
2022-12-31T11:54:47.162Z,99170.00
2022-12-31T11:57:27.528Z,99170.27
2022-12-31T12:00:01.030Z,99173.38
2022-12-31T12:02:36.210Z,99177.81
2022-12-31T12:05:11.320Z,99173.05
2022-12-31T12:07:42.755Z,99181.29
2022-12-31T12:10:25.265Z,99178.27
2022-12-31T12:13:00.551Z,99170.44
2022-12-31T12:15:35.101Z,99169.64
2022-12-31T12:18:10.862Z,99161.58
2022-12-31T12:20:45.416Z,99171.34
2022-12-31T12:23:24.659Z,99170.11
2022-12-31T12:25:55.769Z,99167.81
2022-12-31T12:28:29.323Z,99167.41
2022-12-31T12:31:03.467Z,99165.15
2022-12-31T12:33:44.887Z,99165.02
2022-12-31T12:36:18.478Z,99162.30
2022-12-31T12:38:49.618Z,99167.34
2022-12-31T12:41:27.782Z,99165.20
2022-12-31T12:44:08.347Z,99162.39
2022-12-31T12:46:48.280Z,99160.73
2022-12-31T12:49:26.961Z,99158.14
2022-12-31T12:52:26.249Z,99156.90
2022-12-31T12:55:06.724Z,99161.08
2022-12-31T12:57:47.691Z,99159.02
2022-12-31T13:00:25.208Z,99156.02
2022-12-31T13:04:32.606Z,99161.02
2022-12-31T13:06:59.830Z,99162.02
2022-12-31T13:09:54.211Z,99162.81
2022-12-31T13:12:56.827Z,99160.42
2022-12-31T13:15:30.928Z,99163.24
2022-12-31T13:18:14.327Z,99165.38
2022-12-31T13:20:51.401Z,99164.61
2022-12-31T13:23:28.678Z,99165.77
2022-12-31T13:26:08.272Z,99167.52
2022-12-31T13:28:42.940Z,99167.75
2022-12-31T13:31:17.055Z,99167.05
2022-12-31T13:33:52.572Z,99170.89
2022-12-31T13:36:26.535Z,99170.05
2022-12-31T13:39:00.013Z,99177.45
2022-12-31T13:41:35.771Z,99175.73
2022-12-31T13:44:12.651Z,99177.45
2022-12-31T13:46:46.574Z,99182.88
2022-12-31T13:49:22.714Z,99185.33
2022-12-31T13:52:00.164Z,99188.42
2022-12-31T13:54:39.758Z,99184.33
2022-12-31T13:57:19.677Z,99185.50
2022-12-31T13:59:55.998Z,99189.12
2022-12-31T14:02:38.243Z,99189.95
2022-12-31T14:05:17.980Z,99192.38
2022-12-31T14:07:52.815Z,99198.88
2022-12-31T14:10:33.480Z,99195.23
2022-12-31T14:13:15.865Z,99199.79
2022-12-31T14:15:57.349Z,99202.88
2022-12-31T14:18:34.022Z,99205.30
2022-12-31T14:21:13.022Z,99200.66
2022-12-31T14:23:51.772Z,99206.73
2022-12-31T14:26:27.723Z,99204.58
2022-12-31T14:29:14.856Z,99206.90
2022-12-31T14:32:11.265Z,99203.04
2022-12-31T14:34:52.848Z,99210.64
2022-12-31T14:37:33.866Z,99215.23
2022-12-31T14:40:15.800Z,99222.63
2022-12-31T14:43:02.255Z,99223.52
2022-12-31T14:46:02.262Z,99224.92
2022-12-31T14:48:45.030Z,99224.38
2022-12-31T14:51:16.778Z,99220.75
2022-12-31T14:53:56.973Z,99220.47
2022-12-31T14:56:41.974Z,99221.64
2022-12-31T14:59:28.894Z,99221.78
2022-12-31T15:02:01.041Z,99225.42
2022-12-31T15:04:35.606Z,99228.84
2022-12-31T15:07:13.611Z,99227.87
2022-12-31T15:10:08.339Z,99237.57
2022-12-31T15:13:02.285Z,99242.45
2022-12-31T15:16:04.555Z,99240.48
2022-12-31T15:18:51.438Z,99246.45
2022-12-31T15:21:53.379Z,99250.36
2022-12-31T15:24:26.967Z,99246.05
2022-12-31T15:26:59.895Z,99251.45
2022-12-31T15:29:34.414Z,99253.95
2022-12-31T15:32:09.043Z,99252.88
2022-12-31T15:34:40.090Z,99250.46
2022-12-31T15:37:32.127Z,99253.91
2022-12-31T15:40:20.621Z,99250.52
2022-12-31T15:42:56.574Z,99251.44
2022-12-31T15:45:33.154Z,99262.64
2022-12-31T15:48:09.994Z,99266.09
2022-12-31T15:50:43.178Z,99271.86
2022-12-31T15:53:29.295Z,99270.71
2022-12-31T15:56:03.136Z,99278.55
2022-12-31T15:58:37.173Z,99285.33
2022-12-31T16:01:16.166Z,99287.17
2022-12-31T16:03:51.147Z,99292.33
2022-12-31T16:06:22.529Z,99295.89
2022-12-31T16:08:53.398Z,99295.79
2022-12-31T16:11:25.685Z,99293.00
2022-12-31T16:13:59.068Z,99293.91
2022-12-31T16:16:32.572Z,99296.52
2022-12-31T16:19:32.761Z,99298.39
2022-12-31T16:22:10.466Z,99310.46
2022-12-31T16:25:02.777Z,99318.27
2022-12-31T16:27:33.473Z,99319.73
2022-12-31T16:30:07.622Z,99318.48
2022-12-31T16:32:40.331Z,99318.96
2022-12-31T16:35:26.299Z,99318.47
2022-12-31T16:38:14.931Z,99315.60
2022-12-31T16:41:05.091Z,99311.32
2022-12-31T16:43:40.082Z,99308.10
2022-12-31T16:46:16.189Z,99298.89
2022-12-31T16:48:51.670Z,99296.34
2022-12-31T16:51:25.651Z,99296.21
2022-12-31T16:53:56.759Z,99298.17
2022-12-31T16:56:34.613Z,99298.69
2022-12-31T16:59:08.290Z,99304.59
2022-12-31T17:01:38.451Z,99310.70
2022-12-31T17:04:13.733Z,99319.47
2022-12-31T17:06:45.427Z,99326.27
2022-12-31T17:09:20.997Z,99328.98
2022-12-31T17:12:11.316Z,99327.42
2022-12-31T17:14:52.335Z,99327.61
2022-12-31T17:17:27.618Z,99330.01
2022-12-31T17:20:02.089Z,99331.27
2022-12-31T17:22:37.440Z,99333.56
2022-12-31T17:25:21.800Z,99330.40
2022-12-31T17:27:59.270Z,99335.03
2022-12-31T17:30:41.472Z,99331.27
2022-12-31T17:33:34.388Z,99331.85
2022-12-31T17:36:24.665Z,99328.21
2022-12-31T17:38:55.611Z,99325.52
2022-12-31T17:41:28.647Z,99324.85
2022-12-31T17:44:00.154Z,99330.46
2022-12-31T17:46:31.430Z,99329.89
2022-12-31T17:49:04.523Z,99335.68
2022-12-31T17:51:35.445Z,99336.57
2022-12-31T17:54:13.644Z,99340.73
2022-12-31T17:56:45.470Z,99341.25
2022-12-31T17:59:19.904Z,99343.41
2022-12-31T18:01:51.408Z,99341.28
2022-12-31T18:04:22.744Z,99343.98
2022-12-31T18:06:53.779Z,99346.58
2022-12-31T18:09:24.731Z,99350.05
2022-12-31T18:12:01.409Z,99353.08
2022-12-31T18:14:32.843Z,99355.11
2022-12-31T18:17:03.889Z,99356.92
2022-12-31T18:22:26.261Z,99359.63
2022-12-31T18:24:57.194Z,99356.86
2022-12-31T18:27:28.978Z,99368.41
2022-12-31T18:30:04.877Z,99364.93
2022-12-31T18:32:38.169Z,99363.41
2022-12-31T18:35:33.421Z,99367.70
2022-12-31T18:38:11.696Z,99367.86
2022-12-31T18:40:44.415Z,99366.14
2022-12-31T18:43:19.132Z,99365.59
2022-12-31T18:45:51.547Z,99369.91
2022-12-31T18:48:23.386Z,99369.98
2022-12-31T18:50:54.531Z,99369.45
2022-12-31T18:53:26.461Z,99369.95
2022-12-31T18:55:58.908Z,99364.04
2022-12-31T18:58:29.906Z,99366.73
2022-12-31T19:01:01.432Z,99371.05
2022-12-31T19:03:32.463Z,99377.72
2022-12-31T19:06:03.778Z,99375.21
2022-12-31T19:08:34.713Z,99374.17
2022-12-31T19:11:06.469Z,99377.95
2022-12-31T19:13:37.295Z,99376.25
2022-12-31T19:16:10.443Z,99376.61
2022-12-31T19:18:42.064Z,99375.20
2022-12-31T19:21:18.564Z,99375.92
2022-12-31T19:23:50.806Z,99377.73
2022-12-31T19:26:23.272Z,99386.73
2022-12-31T19:28:54.331Z,99388.05
2022-12-31T19:31:25.385Z,99389.27
2022-12-31T19:33:56.574Z,99382.50
2022-12-31T19:36:27.650Z,99386.48
2022-12-31T19:38:58.692Z,99382.63
2022-12-31T19:41:29.954Z,99387.06
2022-12-31T19:44:01.960Z,99385.52
2022-12-31T19:46:33.080Z,99386.45
2022-12-31T19:49:04.386Z,99378.61
2022-12-31T19:51:35.311Z,99384.22
2022-12-31T19:54:06.627Z,99388.34
2022-12-31T19:56:37.861Z,99387.91
2022-12-31T19:59:10.851Z,99394.98
2022-12-31T20:01:42.238Z,99397.52
2022-12-31T20:04:13.053Z,99392.02
2022-12-31T20:06:43.869Z,99394.27
2022-12-31T20:09:15.531Z,99393.81
2022-12-31T20:11:46.677Z,99385.73
2022-12-31T20:14:17.955Z,99375.20
2022-12-31T20:16:49.205Z,99374.05
2022-12-31T20:19:20.019Z,99374.11
2022-12-31T20:21:50.858Z,99363.84
2022-12-31T20:24:21.696Z,99359.51
2022-12-31T20:26:52.562Z,99357.01
2022-12-31T20:29:23.495Z,99362.50
2022-12-31T20:31:54.433Z,99369.40
2022-12-31T20:34:25.261Z,99372.64
2022-12-31T20:36:56.303Z,99368.64
2022-12-31T20:39:27.046Z,99370.48
2022-12-31T20:41:57.990Z,99370.05
2022-12-31T20:44:29.046Z,99372.09
2022-12-31T20:46:59.974Z,99375.64
2022-12-31T20:50:09.061Z,99375.94
2022-12-31T20:52:21.618Z,99376.08
2022-12-31T20:54:52.543Z,99368.79
2022-12-31T20:57:24.420Z,99369.06
2022-12-31T20:59:57.610Z,99367.92
2022-12-31T21:02:40.844Z,99364.91
2022-12-31T21:05:14.171Z,99360.59
2022-12-31T21:07:45.083Z,99359.33
2022-12-31T21:10:17.082Z,99356.73
2022-12-31T21:12:53.411Z,99354.02
2022-12-31T21:15:24.583Z,99358.75
2022-12-31T21:17:55.808Z,99367.61
2022-12-31T21:20:26.470Z,99370.75
2022-12-31T21:22:57.551Z,99373.81
2022-12-31T21:25:28.749Z,99376.91
2022-12-31T21:27:59.578Z,99378.98
2022-12-31T21:30:31.683Z,99382.77
2022-12-31T21:33:02.671Z,99382.09
2022-12-31T21:35:45.546Z,99381.98
2022-12-31T21:38:23.290Z,99376.14
2022-12-31T21:40:54.449Z,99380.73
2022-12-31T21:43:25.158Z,99383.34
2022-12-31T21:46:03.874Z,99384.21
2022-12-31T21:48:35.081Z,99385.20
2022-12-31T21:51:14.286Z,99388.45
2022-12-31T21:53:43.928Z,99397.63
2022-12-31T21:56:16.181Z,99403.03
2022-12-31T21:59:12.977Z,99395.83
2022-12-31T22:02:01.704Z,99392.39
2022-12-31T22:05:01.456Z,99398.00
2022-12-31T22:07:23.701Z,99395.89
2022-12-31T22:09:54.460Z,99394.05
2022-12-31T22:12:25.456Z,99395.15
2022-12-31T22:15:15.612Z,99398.88
2022-12-31T22:17:47.015Z,99401.13
2022-12-31T22:20:27.502Z,99399.30
2022-12-31T22:22:59.439Z,99402.46
2022-12-31T22:25:30.301Z,99405.88
2022-12-31T22:30:51.936Z,99410.63
2022-12-31T22:33:22.958Z,99412.40
2022-12-31T22:36:02.542Z,99404.30
2022-12-31T22:38:33.679Z,99404.33
2022-12-31T22:41:11.390Z,99402.95
2022-12-31T22:43:44.228Z,99401.20
2022-12-31T22:46:17.427Z,99400.86
2022-12-31T22:48:49.221Z,99403.96
2022-12-31T22:51:21.029Z,99401.93
2022-12-31T22:53:51.695Z,99404.41
2022-12-31T22:56:22.755Z,99400.73
2022-12-31T22:58:53.610Z,99395.68
2022-12-31T23:01:26.392Z,99396.90
2022-12-31T23:03:57.638Z,99397.75
2022-12-31T23:06:28.831Z,99394.01
2022-12-31T23:09:17.132Z,99402.45
2022-12-31T23:11:47.836Z,99412.06
2022-12-31T23:14:37.731Z,99401.41
2022-12-31T23:17:30.370Z,99390.94
2022-12-31T23:20:21.365Z,99392.50
2022-12-31T23:23:08.804Z,99395.96
2022-12-31T23:25:42.520Z,99389.94
2022-12-31T23:28:15.131Z,99393.99
2022-12-31T23:30:46.472Z,99379.36
2022-12-31T23:33:19.769Z,99381.88
2022-12-31T23:35:50.819Z,99377.32
2022-12-31T23:38:21.700Z,99372.26
2022-12-31T23:40:52.516Z,99369.96
2022-12-31T23:43:24.795Z,99368.70
2022-12-31T23:45:55.922Z,99367.77
2022-12-31T23:48:26.883Z,99367.80
2022-12-31T23:50:57.828Z,99369.09
2022-12-31T23:53:28.673Z,99363.78
2022-12-31T23:56:13.023Z,99365.70
2022-12-31T23:58:48.473Z,99368.08
